• Join FlightAware (Why Join?)
  • Login
  • US Flag 
Rudolph Flight #1: Arrived! 
02:07PM EST


 

Airport Tracker/Info


-or-


 

Live Flight TrackerFlight Track Log ✈ AWE1940 ✈ 02-Jul-2013 ✈ KCLT - KALB

Flight Track Log - Related Links

Times and Time Zones

All times are in EDT time to prevent confusion due to time zone crossing. See the AWE1940 flight status page for this flight to view local times or setup timezone preferences in your user account.

Time Position Orientation Groundspeed Altitude Reporting Facility
EDT Latitude Longitude Course Direction KTS MPH feet Rate Location/Type
10:42PM 35.1933 -80.9533 52° Northeast 167 192 1,800  Level Atlanta Center
10:43PM 35.1461 -80.9856 209° Southwest 240 276 4,600 2,340 Climbing Atlanta Center
10:44PM 35.1958 -81.0525 312° West 280 322 7,300 2,700 Climbing Atlanta Center
10:45PM 35.2546 -81.2167 North  Level FlightAware Approximate
10:45PM 35.2717 -81.0775 345° North 304 350 10,100  Level Atlanta Center
10:46PM 35.3231 -81.1043 52° Northeast  Level FlightAware Approximate
10:46PM 35.3517 -81.0239 29° Northeast 374 430 12,100  Level Atlanta Center
10:47PM 35.3974 -80.9875 52° Northeast  Level FlightAware Approximate
10:47PM 35.4464 -80.9719 24° Northeast 379 436 14,500  Level Atlanta Center
10:48PM 35.5494 -80.9272 19° North 385 443 17,200 2,220 Climbing Atlanta Center
10:49PM 35.6525 -80.8747 22° Northeast 385 443 19,000 1,920 Climbing Atlanta Center
10:50PM 35.7617 -80.8194 22° Northeast 397 457 21,100 1,800 Climbing Atlanta Center
10:51PM 35.8708 -80.7664 21° North 415 478 22,700 1,620 Climbing Atlanta Center
10:52PM 35.9858 -80.7078 22° Northeast 431 496 24,400 1,380 Climbing Atlanta Center
10:53PM 36.1031 -80.6464 23° Northeast 442 509 25,500 1,200 Climbing Atlanta Center
10:54PM 36.2222 -80.5822 23° Northeast 457 526 26,900 1,260 Climbing Atlanta Center
10:55PM 36.3458 -80.5203 22° Northeast 457 526 28,100 1,320 Climbing Atlanta Center
10:57PM 36.6236 -80.3772 22° Northeast 479 551 31,300 1,380 Climbing Washington Center
10:58PM 36.7600 -80.3053 23° Northeast 479 551 32,700 960 Climbing Washington Center
10:59PM 36.8814 -80.2453 22° Northeast 479 551 33,200 840 Climbing Washington Center
11:00PM 37.0069 -80.1800 23° Northeast 479 551 34,400 840 Climbing Washington Center
11:01PM 37.1283 -80.1142 23° Northeast 479 551 35,000 300 Climbing Washington Center
11:02PM 37.2411 -80.0558 22° Northeast 479 551 35,000  Level Washington Center
11:03PM 37.3644 -79.9922 22° Northeast 479 551 35,000  Level Washington Center
11:04PM 37.4900 -79.9289 22° Northeast 479 551 35,000  Level Washington Center
11:05PM 37.6175 -79.8628 22° Northeast 479 551 35,000  Level Washington Center
11:06PM 37.7431 -79.7939 23° Northeast 485 558 35,000  Level Washington Center
11:07PM 37.8686 -79.7219 24° Northeast 485 558 35,000  Level Washington Center
11:08PM 38.0089 -79.6478 23° Northeast 485 558 35,000  Level Washington Center
11:09PM 38.1319 -79.5806 23° Northeast 485 558 35,000  Level Washington Center
11:10PM 38.2572 -79.5133 23° Northeast 485 558 35,000  Level Washington Center
11:11PM 38.3847 -79.4431 23° Northeast 485 558 35,000  Level Washington Center
11:12PM 38.4931 -79.3825 24° Northeast 485 558 35,000  Level Washington Center
11:13PM 38.6181 -79.3117 24° Northeast 485 558 35,000  Level Washington Center
11:14PM 38.7389 -79.2486 22° Northeast 485 558 35,000  Level Washington Center
11:15PM 38.8600 -79.1747 25° Northeast 480 552 35,000  Level Washington Center
11:16PM 38.9831 -79.1058 24° Northeast 475 547 35,000  Level Washington Center
11:17PM 39.1058 -79.0397 23° Northeast 475 547 35,000  Level Washington Center
11:19PM 39.3275 -78.9167 23° Northeast 507 583 35,000  Level Cleveland Center
11:20PM 39.4639 -78.8408 23° Northeast 500 575 35,000  Level Cleveland Center
11:21PM 39.5878 -78.7675 25° Northeast 495 570 35,000  Level Cleveland Center
11:22PM 39.7139 -78.6967 23° Northeast 495 570 35,000  Level Cleveland Center
11:23PM 39.8211 -78.6317 25° Northeast 490 564 35,000  Level Cleveland Center
11:24PM 39.9469 -78.5575 24° Northeast 484 557 35,000  Level Cleveland Center
11:25PM 40.0731 -78.4886 23° Northeast 484 557 35,000  Level Cleveland Center
11:26PM 40.1986 -78.4167 24° Northeast 484 557 35,000  Level Cleveland Center
11:27PM 40.3183 -78.3419 25° Northeast 484 557 35,000  Level Cleveland Center
11:28PM 40.4042 -78.2481 40° Northeast 487 560 35,000  Level New York Center
11:29PM 40.4819 -78.1036 55° Northeast 487 560 35,000  Level New York Center
11:30PM 40.5617 -77.9589 54° Northeast 487 560 35,000  Level New York Center
11:31PM 40.6339 -77.8325 53° Northeast 487 560 35,000  Level New York Center
11:32PM 40.7156 -77.6847 54° Northeast 487 560 35,000  Level New York Center
11:33PM 40.7947 -77.5419 54° Northeast 487 560 35,000  Level New York Center
11:34PM 40.8758 -77.3989 53° Northeast 487 560 35,000  Level New York Center
11:35PM 40.9617 -77.2425 54° Northeast 487 560 35,000  Level New York Center
11:36PM 41.0403 -77.0986 54° Northeast 482 555 35,000  Level New York Center
11:37PM 41.1186 -76.9544 54° Northeast 482 555 35,000  Level New York Center
11:38PM 41.1992 -76.8072 54° Northeast 477 549 35,000  Level New York Center
11:39PM 41.2772 -76.6650 54° Northeast 477 549 35,000  Level New York Center
11:40PM 41.3572 -76.5200 54° Northeast 477 549 35,000  Level New York Center
11:41PM 41.4353 -76.3661 56° Northeast 484 557 35,000 -480 Level New York Center
11:43PM 41.5850 -76.0872 54° Northeast 496 571 33,700 -840 Descending Boston Center
11:44PM 41.6603 -75.9444 55° Northeast 483 556 32,700 -1,020 Descending Boston Center
11:45PM 41.7358 -75.7983 55° Northeast 478 550 31,700 -960 Descending Boston Center
11:46PM 41.8128 -75.6519 55° Northeast 478 550 30,800 -960 Descending Boston Center
11:47PM 41.8900 -75.5081 54° Northeast 478 550 29,800 -1,380 Descending Boston Center
11:48PM 41.9667 -75.3608 55° Northeast 478 550 28,100 -1,860 Descending Boston Center
11:49PM 42.0414 -75.2133 56° Northeast 478 550 26,100 -3,000 Descending Boston Center
11:50PM 42.1178 -75.0656 55° Northeast 478 550 22,200 -3,300 Descending Boston Center
11:51PM 42.1897 -74.9228 56° Northeast 478 550 19,500 -2,580 Descending Boston Center
11:52PM 42.2661 -74.7714 56° Northeast 449 517 16,900 -2,400 Descending Boston Center
11:53PM 42.3203 -74.6611 56° Northeast 443 510 14,700 -2,580 Descending Boston Center
11:54PM 42.3917 -74.5233 55° Northeast 419 482 12,000 -1,740 Descending Boston Center
11:55PM 42.4436 -74.4181 56° Northeast 387 445 11,300 -960 Descending Boston Center
11:56PM 42.4956 -74.3125 56° Northeast 313 360 10,200 -1,440 Descending Boston Center
11:57PM 42.5511 -74.2269 49° Northeast 309 356 8,600 -1,560 Descending Boston Center
11:58PM 42.6231 -74.1500 38° Northeast 298 343 7,100 -1,740 Descending Boston Center
11:59PM 42.6867 -74.0839 37° Northeast 292 336 5,200 -1,620 Descending Boston Center
12:00AM 42.7500 -74.0122 40° Northeast 287 330 3,900 -960 Descending Boston Center
12:01AM 42.8431 -73.9125 38° Northeast 273 314 2,700 -780 Descending Boston Center